W3ADC Weather Reports


time (UTC)temp
F
wind
direction
speed
knots
gust
knots
rain 1hr
in
rain 24hr
in
rain mn
in
humidity
%
barometer
mb
20260506004602 73 230 4.3 13.0 0.00 0.00 0.00 36 1008.0
20260506004041 73 179 2.6 13.0 0.00 0.00 0.00 36 1007.9
20260506003542 73 245 3.5 13.0 0.00 0.00 0.00 36 1007.9
20260506003049 74 196 3.5 11.3 0.00 0.00 0.00 36 1007.7
20260506002541 74 210 4.3 11.3 0.00 0.00 0.00 36 1007.8
20260506002041 74 202 4.3 10.4 0.00 0.00 0.00 36 1007.7
20260506001556 74 229 3.5 9.6 0.00 0.00 0.00 37 1007.7
20260506001041 74 228 2.6 9.6 0.00 0.00 0.00 37 1007.7
20260506000542 74 211 3.5 10.4 0.00 0.00 0.00 37 1007.6
20260506000115 74 217 3.5 10.4 0.00 0.00 0.00 37 1007.7
20260505235544 75 209 3.5 13.0 0.00 0.00 0.00 37 1007.8
20260505235042 75 211 4.3 13.0 0.00 0.00 0.00 37 1007.7
20260505234552 75 225 2.6 12.2 0.00 0.00 0.00 37 1007.7
20260505234041 75 178 3.5 11.3 0.00 0.00 0.00 36 1007.5
20260505233541 75 155 3.5 9.6 0.00 0.00 0.00 36 1007.6
20260505233057 75 221 2.6 12.2 0.00 0.00 0.00 36 1007.5
20260505232541 76 213 4.3 12.2 0.00 0.00 0.00 36 1007.4
20260505232044 76 220 2.6 9.6 0.00 0.00 0.00 35 1007.5
20260505231554 76 218 3.5 11.3 0.00 0.00 0.00 35 1007.5
20260505231044 76 208 3.5 17.4 0.00 0.00 0.00 35 1007.5
20260505230541 76 214 3.5 17.4 0.00 0.00 0.00 35 1007.5
20260505230106 76 188 6.1 17.4 0.00 0.00 0.00 35 1007.4
20260505225544 76 209 3.5 14.8 0.00 0.00 0.00 35 1007.4
20260505225044 76 200 3.5 14.8 0.00 0.00 0.00 35 1007.4
20260505224557 77 205 4.3 14.8 0.00 0.00 0.00 34 1007.4
20260505224041 77 207 3.5 13.9 0.00 0.00 0.00 34 1007.4
20260505223541 77 194 3.5 11.3 0.00 0.00 0.00 34 1007.4
20260505223055 77 221 4.3 11.3 0.00 0.00 0.00 34 1007.5
20260505222541 77 263 3.5 11.3 0.00 0.00 0.00 33 1007.5
20260505222042 77 190 3.5 12.2 0.00 0.00 0.00 33 1007.6
20260505221559 78 227 5.2 12.2 0.00 0.00 0.00 32 1007.6
20260505221042 78 236 4.3 12.2 0.00 0.00 0.00 33 1007.6
20260505220541 78 222 4.3 12.2 0.00 0.00 0.00 33 1007.5
20260505220054 78 18 3.5 11.3 0.00 0.00 0.00 33 1007.4
20260505215541 79 218 6.1 11.3 0.00 0.00 0.00 32 1007.5
20260505215041 79 113 4.3 10.4 0.00 0.00 0.00 34 1007.5
20260505214553 79 221 4.3 15.6 0.00 0.00 0.00 33 1007.4
20260505214044 79 243 4.3 15.6 0.00 0.00 0.00 34 1007.4
20260505213540 79 224 3.5 13.0 0.00 0.00 0.00 34 1007.3
20260505213052 79 201 4.3 19.1 0.00 0.00 0.00 33 1007.1
20260505212542 79 198 7.0 19.1 0.00 0.00 0.00 33 1007.3
20260505212042 79 223 4.3 13.0 0.00 0.00 0.00 33 1007.2
20260505211549 79 256 5.2 12.2 0.00 0.00 0.00 33 1007.2
20260505211042 80 191 5.2 15.6 0.00 0.00 0.00 34 1007.2
20260505210541 79 204 4.3 17.4 0.00 0.00 0.00 33 1007.3
20260505210054 79 219 4.3 17.4 0.00 0.00 0.00 34 1007.2
20260505205543 79 238 4.3 16.5 0.00 0.00 0.00 34 1007.2
20260505205042 79 215 3.5 17.4 0.00 0.00 0.00 36 1007.2
20260505204553 79 53 4.3 18.2 0.00 0.00 0.00 35 1007.2
20260505204043 79 236 6.1 18.2 0.00 0.00 0.00 34 1007.2
20260505203541 80 225 8.7 16.5 0.00 0.00 0.00 34 1007.2
20260505203059 80 234 4.3 15.6 0.00 0.00 0.00 35 1007.4
20260505202541 80 221 6.1 15.6 0.00 0.00 0.00 33 1007.3
20260505202041 81 105 3.5 9.6 0.00 0.00 0.00 35 1007.4
20260505201551 80 202 4.3 11.3 0.00 0.00 0.00 35 1007.4
20260505201041 80 238 4.3 11.3 0.00 0.00 0.00 35 1007.4
20260505200542 80 240 4.3 20.0 0.00 0.00 0.00 36 1007.5
20260505200051 80 203 3.5 20.0 0.00 0.00 0.00 36 1007.6
20260505195541 80 217 7.0 19.1 0.00 0.00 0.00 34 1007.6
20260505195045 80 236 4.3 12.2 0.00 0.00 0.00 35 1007.6
20260505194605 80 205 5.2 12.2 0.00 0.00 0.00 35 1007.6
20260505194042 80 198 5.2 9.6 0.00 0.00 0.00 34 1007.7
20260505193541 80 213 4.3 18.2 0.00 0.00 0.00 35 1007.8
20260505193053 80 185 4.3 18.2 0.00 0.00 0.00 36 1007.8
20260505192541 80 245 6.1 17.4 0.00 0.00 0.00 34 1007.8
20260505192041 81 220 4.3 16.5 0.00 0.00 0.00 33 1007.9
20260505191603 80 202 2.6 17.4 0.00 0.00 0.00 36 1008.0
20260505191041 80 228 7.0 17.4 0.00 0.00 0.00 34 1007.9
20260505190541 80 209 5.2 18.2 0.00 0.00 0.00 36 1008.0
20260505190049 79 172 5.2 20.0 0.00 0.00 0.00 36 1008.0
20260505185545 79 219 5.2 20.0 0.00 0.00 0.00 35 1008.1
20260505185042 79 202 8.7 19.1 0.00 0.00 0.00 35 1008.3
20260505184551 79 250 4.3 14.8 0.00 0.00 0.00 37 1008.3
20260505184042 79 232 6.1 15.6 0.00 0.00 0.00 38 1008.6
20260505183542 79 253 5.2 15.6 0.00 0.00 0.00 39 1008.5
20260505183053 79 229 4.3 14.8 0.00 0.00 0.00 39 1008.4
20260505182541 79 265 4.3 18.2 0.00 0.00 0.00 38 1008.6
20260505182044 79 209 5.2 18.2 0.00 0.00 0.00 37 1008.6
20260505181549 79 227 3.5 13.9 0.00 0.00 0.00 39 1008.6
20260505181042 78 196 6.1 13.9 0.00 0.00 0.00 36 1008.6
20260505180541 79 254 4.3 20.0 0.00 0.00 0.00 39 1008.8
20260505180056 79 220 5.2 20.0 0.00 0.00 0.00 41 1008.7
20260505175543 79 169 4.3 11.3 0.00 0.00 0.00 38 1008.7
20260505175041 79 242 3.5 8.7 0.00 0.00 0.00 40 1008.8
20260505174549 79 217 4.3 8.7 0.00 0.00 0.00 37 1008.9
20260505174042 79 220 3.5 13.9 0.00 0.00 0.00 40 1008.9
20260505173541 79 196 2.6 13.9 0.00 0.00 0.00 41 1009.0
20260505173104 79 226 4.3 13.9 0.00 0.00 0.00 41 1009.0
20260505172541 78 172 6.1 13.9 0.00 0.00 0.00 39 1009.0
20260505172041 78 248 3.5 11.3 0.00 0.00 0.00 43 1009.0
20260505171558 78 214 5.2 13.9 0.00 0.00 0.00 39 1009.1
20260505171042 78 220 6.1 13.9 0.00 0.00 0.00 40 1009.3
20260505170541 78 211 4.3 13.9 0.00 0.00 0.00 41 1009.3
20260505170049 78 213 4.3 14.8 0.00 0.00 0.00 39 1009.2
20260505165541 78 200 3.5 14.8 0.00 0.00 0.00 41 1009.2
20260505165042 78 227 4.3 8.7 0.00 0.00 0.00 42 1009.4
20260505164558 78 245 4.3 13.9 0.00 0.00 0.00 41 1009.5
20260505164041 78 244 3.5 13.9 0.00 0.00 0.00 40 1009.6
20260505163544 78 238 3.5 7.0 0.00 0.00 0.00 40 1009.8
20260505163053 78 211 1.7 8.7 0.00 0.00 0.00 43 1009.9
20260505162542 77 236 2.6 8.7 0.00 0.00 0.00 41 1009.9
20260505162042 77 220 2.6 7.8 0.00 0.00 0.00 44 1010.0
20260505161554 77 227 1.7 6.1 0.00 0.00 0.00 47 1010.1
20260505161042 76 249 1.7 7.0 0.00 0.00 0.00 42 1009.9
20260505160544 76 0 1.7 13.9 0.00 0.00 0.00 45 1009.9
20260505153056 76 254 4.3 8.7 0.00 0.00 0.00 44 1010.1
20260505152542 76 161 1.7 7.0 0.00 0.00 0.00 48 1010.0
20260505152041 76 249 1.7 7.0 0.00 0.00 0.00 47 1010.0
20260505151601 76 267 1.7 7.0 0.00 0.00 0.00 49 1009.9
20260505151043 75 207 2.6 7.0 0.00 0.00 0.00 46 1010.0
20260505150542 75 225 2.6 6.1 0.00 0.00 0.00 46 1010.0
20260505150108 75 248 1.7 11.3 0.00 0.00 0.00 49 1009.9
20260505140541 71 240 1.7 5.2 0.00 0.00 0.00 54 1010.3
20260505125041 65 213 2.6 7.8 0.00 0.00 0.00 61 1010.8
20260505124559 64 209 1.7 7.8 0.00 0.00 0.00 62 1010.8
20260505124042 64 234 1.7 10.4 0.00 0.00 0.00 63 1010.7
20260505123550 63 198 3.5 10.4 0.00 0.00 0.00 63 1010.9
20260505123056 63 232 2.6 10.4 0.00 0.00 0.00 63 1010.9
20260505122542 63 205 1.7 7.8 0.00 0.00 0.00 64 1010.9
20260505122044 62 203 2.6 7.8 0.00 0.00 0.00 64 1010.9
20260505121618 62 219 2.6 10.4 0.00 0.00 0.00 65 1011.0
20260505121042 62 192 5.2 10.4 0.00 0.00 0.00 65 1010.9
20260505120542 61 221 4.3 10.4 0.00 0.00 0.00 65 1010.8
20260505120053 61 234 2.6 7.0 0.00 0.00 0.00 66 1010.7
20260505115541 61 217 2.6 7.0 0.00 0.00 0.00 67 1010.6
20260505115042 60 216 2.6 9.6 0.00 0.00 0.00 67 1010.5
20260505114554 60 235 2.6 9.6 0.00 0.00 0.00 68 1010.4
20260505114041 60 161 1.7 4.3 0.00 0.00 0.00 68 1010.4
20260505113541 60 226 1.7 9.6 0.00 0.00 0.00 68 1010.3
20260505113103 60 219 2.6 9.6 0.00 0.00 0.00 68 1010.3
20260505112540 60 238 1.7 7.8 0.00 0.00 0.00 68 1010.3
20260505112041 59 215 1.7 7.8 0.00 0.00 0.00 68 1010.2
20260505111549 59 209 1.7 6.1 0.00 0.00 0.00 68 1010.1
20260505111043 59 232 1.7 8.7 0.00 0.00 0.00 69 1010.1
20260505110542 59 177 2.6 8.7 0.00 0.00 0.00 69 1010.0
20260505102040 59 209 2.6 8.7 0.00 0.00 0.00 69 1009.5
20260505101547 59 242 2.6 8.7 0.00 0.00 0.00 69 1009.4
20260505101041 58 223 2.6 7.8 0.00 0.00 0.00 70 1009.5
20260505100541 58 226 3.5 7.8 0.00 0.00 0.00 70 1009.5
20260505100123 58 227 1.7 7.8 0.00 0.00 0.00 70 1009.5
20260505095546 58 209 2.6 7.8 0.00 0.00 0.00 70 1009.4
20260505095046 58 212 2.6 6.1 0.00 0.00 0.00 70 1009.5
20260505094545 59 221 1.7 7.8 0.00 0.00 0.00 69 1009.4
20260505094041 59 208 1.7 7.8 0.00 0.00 0.00 69 1009.4
20260505093542 59 219 2.6 6.1 0.00 0.00 0.00 69 1009.3
20260505093044 59 229 1.7 7.0 0.00 0.00 0.00 68 1009.3
20260505092545 59 224 2.6 10.4 0.00 0.00 0.00 67 1009.3
20260505092042 60 200 3.5 10.4 0.00 0.00 0.00 67 1009.2
20260505091611 60 188 4.3 10.4 0.00 0.00 0.00 67 1009.2
20260505091041 60 209 4.3 8.7 0.00 0.00 0.00 67 1009.1
20260505090541 60 211 3.5 8.7 0.00 0.00 0.00 66 1009.1
20260505090100 60 189 3.5 9.6 0.00 0.00 0.00 66 1009.2
20260505085540 60 218 3.5 9.6 0.00 0.00 0.00 66 1009.1
20260505085040 61 255 2.6 8.7 0.00 0.00 0.00 66 1009.1
20260505084550 61 210 2.6 12.2 0.00 0.00 0.00 65 1009.0
20260505084044 61 201 3.5 12.2 0.00 0.00 0.00 65 1009.1
20260505083544 61 165 4.3 9.6 0.00 0.00 0.00 65 1009.1
20260505083052 61 213 2.6 12.2 0.00 0.00 0.00 65 1009.0
20260505082541 61 219 2.6 12.2 0.00 0.00 0.00 65 1009.0
20260505082042 61 233 2.6 12.2 0.00 0.00 0.00 64 1009.0
20260505081557 61 234 1.7 12.2 0.00 0.00 0.00 64 1009.0
20260505081044 61 198 2.6 7.8 0.00 0.00 0.00 64 1009.0
20260505080541 61 207 2.6 7.8 0.00 0.00 0.00 63 1009.0
20260505080052 62 236 1.7 7.8 0.00 0.00 0.00 63 1008.9
20260505075540 62 217 2.6 8.7 0.00 0.00 0.00 63 1008.9
20260505075040 62 223 3.5 8.7 0.00 0.00 0.00 62 1008.9
20260505074549 62 182 2.6 9.6 0.00 0.00 0.00 62 1008.9
20260505074044 62 239 3.5 11.3 0.00 0.00 0.00 61 1008.8
20260505073539 62 225 4.3 11.3 0.00 0.00 0.00 61 1008.8
20260505073056 63 180 3.5 9.6 0.00 0.00 0.00 60 1008.8
20260505072543 63 205 4.3 8.7 0.00 0.00 0.00 60 1008.8
20260505072042 63 216 3.5 12.2 0.00 0.00 0.00 60 1008.7
20260505071549 63 221 4.3 12.2 0.00 0.00 0.00 59 1008.7
20260505071040 63 209 3.5 13.0 0.00 0.00 0.00 59 1008.6
20260505070541 63 217 3.5 13.0 0.00 0.00 0.00 59 1008.7
20260505070052 63 166 3.5 9.6 0.00 0.00 0.00 60 1008.6
20260505065541 63 222 1.7 9.6 0.00 0.00 0.00 60 1008.6
20260505065040 63 207 3.5 9.6 0.00 0.00 0.00 60 1008.7
20260505064547 63 242 2.6 7.8 0.00 0.00 0.00 61 1008.7
20260505064040 62 220 2.6 7.8 0.00 0.00 0.00 62 1008.7
20260505063540 62 222 2.6 9.6 0.00 0.00 0.00 62 1008.9
20260505063051 62 183 3.5 9.6 0.00 0.00 0.00 63 1008.9
20260505062540 62 121 1.7 7.8 0.00 0.00 0.00 63 1008.9
20260505062041 62 226 1.7 5.2 0.00 0.00 0.00 63 1008.9
20260505061548 62 211 0.9 7.8 0.00 0.00 0.00 62 1008.9
20260505061040 62 208 1.7 7.8 0.00 0.00 0.00 62 1008.9
20260505060544 62 211 1.7 3.5 0.00 0.00 0.00 62 1009.0
20260505060049 63 228 1.7 3.5 0.00 0.00 0.00 62 1009.0
20260505055540 63 219 1.7 6.1 0.00 0.00 0.00 61 1009.0
20260505055041 63 227 1.7 6.1 0.00 0.00 0.00 61 1009.1
20260505054615 63 176 2.6 7.0 0.00 0.00 0.00 61 1009.1
20260505054041 63 227 1.7 10.4 0.00 0.00 0.00 60 1009.0
20260505053540 64 215 2.6 10.4 0.00 0.00 0.00 60 1009.1
20260505053048 64 228 2.6 8.7 0.00 0.00 0.00 60 1009.1
20260505052544 64 223 2.6 8.7 0.00 0.00 0.00 60 1009.1
20260505052040 64 229 2.6 7.8 0.00 0.00 0.00 60 1009.0
20260505051549 64 215 2.6 7.8 0.00 0.00 0.00 60 1009.0
20260505051041 64 213 3.5 7.8 0.00 0.00 0.00 60 1009.0
20260505050540 63 203 2.6 10.4 0.00 0.00 0.00 60 1008.9
20260505041600 64 223 1.7 8.7 0.00 0.00 0.00 58 1008.9
20260505041041 64 213 2.6 8.7 0.00 0.00 0.00 58 1008.8
20260505040542 64 230 2.6 7.0 0.00 0.00 0.00 57 1008.7
20260505040052 64 228 1.7 6.1 0.00 0.00 0.00 57 1008.8
20260505035540 64 212 1.7 6.1 0.00 0.00 0.00 56 1008.9
20260505035040 64 224 1.7 8.7 0.00 0.00 0.00 56 1008.7
20260505034547 64 205 1.7 8.7 0.00 0.00 0.00 56 1008.7
20260505034040 64 202 2.6 7.0 0.00 0.00 0.00 56 1008.7
20260505033542 64 169 2.6 7.0 0.00 0.00 0.00 56 1008.7
20260505033049 64 211 2.6 8.7 0.00 0.00 0.00 56 1008.7
20260505032541 64 220 2.6 8.7 0.00 0.00 0.00 55 1008.6
20260505032039 64 169 1.7 7.0 0.00 0.00 0.00 55 1008.6
20260505031547 64 216 2.6 11.3 0.00 0.00 0.00 55 1008.7
20260505031041 64 191 4.3 11.3 0.00 0.00 0.00 54 1008.6
20260505030544 64 208 3.5 9.6 0.00 0.00 0.00 54 1008.7
20260505030058 65 217 4.3 10.4 0.00 0.00 0.00 54 1008.6
20260505025541 65 204 4.3 13.0 0.00 0.00 0.00 54 1008.6
20260505025041 65 208 3.5 13.0 0.00 0.00 0.00 53 1008.6
20260505024547 65 187 3.5 13.0 0.00 0.00 0.00 53 1008.6
20260505024040 65 196 5.2 13.0 0.00 0.00 0.00 53 1008.7
20260505023540 65 221 4.3 8.7 0.00 0.00 0.00 53 1008.7
20260505023049 65 225 2.6 8.7 0.00 0.00 0.00 53 1008.8
20260505022540 65 244 3.5 8.7 0.00 0.00 0.00 52 1008.8
20260505022041 65 186 3.5 9.6 0.00 0.00 0.00 52 1008.7
20260505021552 65 211 2.6 9.6 0.00 0.00 0.00 52 1008.6
20260505021041 66 175 2.6 8.7 0.00 0.00 0.00 51 1008.6
20260505020544 66 188 3.5 8.7 0.00 0.00 0.00 51 1008.5
20260505020052 66 202 3.5 13.0 0.00 0.00 0.00 51 1008.6
20260505015542 66 209 3.5 13.0 0.00 0.00 0.00 51 1008.5
20260505015044 66 219 3.5 13.0 0.00 0.00 0.00 51 1008.5
20260505014545 65 215 4.3 13.0 0.00 0.00 0.00 50 1008.4
20260505014041 65 183 4.3 12.2 0.00 0.00 0.00 50 1008.3
20260505013545 65 205 3.5 8.7 0.00 0.00 0.00 50 1008.6
20260505013049 65 186 3.5 8.7 0.00 0.00 0.00 50 1008.6
20260505012541 65 157 4.3 8.7 0.00 0.00 0.00 49 1008.6
20260505012042 65 198 2.6 7.8 0.00 0.00 0.00 49 1008.5
20260505011549 65 206 3.5 7.8 0.00 0.00 0.00 49 1008.5
20260505011043 65 184 3.5 7.8 0.00 0.00 0.00 49 1008.4
20260505010544 66 169 3.5 7.8 0.00 0.00 0.00 49 1008.3
20260505010104 66 194 2.6 8.7 0.00 0.00 0.00 48 1008.2
20260505005541 66 190 3.5 10.4 0.00 0.00 0.00 47 1008.1
20260505005043 66 163 3.5 10.4 0.00 0.00 0.00 47 1008.1